Time;durP1;ratioP1;P1;durP2;ratioP2;P2;SDS_P1;SDS_P2;PMS_P1;PMS_P2;Temp;Humidity;BMP_temperature;BMP_pressure;BME280_temperature;BME280_humidity;BME280_pressure;Samples;Min_cycle;Max_cycle;Signal;HPM_P1;HPM_P2
2023/05/25 00:02:13;;;;;;;3.60;3.20;;;;;16.40;97096.00;;;;4930565;29;20200;-70
2023/05/25 00:05:03;;;;;;;3.67;2.87;;;;;16.10;97094.00;;;;4926569;29;20208;-71
2023/05/25 00:07:53;;;;;;;3.43;3.10;;;;;16.00;97099.00;;;;4930271;29;20240;-71
2023/05/25 00:10:42;;;;;;;4.47;3.70;;;;;16.40;97093.00;;;;4930264;29;20209;-72
2023/05/25 00:13:31;;;;;;;4.50;3.43;;;;;16.50;97093.00;;;;4930444;29;20204;-71
2023/05/25 00:16:20;;;;;;;3.47;3.17;;;;;16.60;97096.00;;;;4927844;29;20239;-71
2023/05/25 00:19:10;;;;;;;7.47;3.53;;;;;16.50;97094.00;;;;4930563;29;20218;-71
2023/05/25 00:22:01;;;;;;;3.93;3.57;;;;;16.50;97108.00;;;;4930340;29;20213;-72
2023/05/25 00:24:51;;;;;;;5.13;3.67;;;;;16.40;97098.00;;;;4931376;29;20327;-72
2023/05/25 00:27:40;;;;;;;5.47;3.50;;;;;16.40;97106.00;;;;4929673;29;20220;-71
2023/05/25 00:30:29;;;;;;;4.70;3.80;;;;;16.40;97111.00;;;;4927751;29;20232;-71
2023/05/25 00:33:18;;;;;;;4.37;3.97;;;;;16.40;97113.00;;;;4930586;29;20213;-71
2023/05/25 00:36:08;;;;;;;7.03;4.00;;;;;16.40;97123.00;;;;4931013;29;20247;-71
2023/05/25 00:38:57;;;;;;;4.33;3.30;;;;;16.40;97130.00;;;;4930522;29;20216;-71
2023/05/25 00:41:48;;;;;;;4.30;3.37;;;;;16.30;97124.00;;;;4930318;29;20205;-71
2023/05/25 00:44:37;;;;;;;4.67;3.80;;;;;16.10;97117.00;;;;4930249;29;20220;-71
2023/05/25 00:47:27;;;;;;;3.53;3.23;;;;;16.10;97120.00;;;;4933258;29;20235;-71
2023/05/25 00:50:18;;;;;;;5.13;3.73;;;;;16.20;97123.00;;;;4933554;29;20208;-71
2023/05/25 00:53:08;;;;;;;3.80;3.50;;;;;16.10;97124.00;;;;4929318;29;20227;-71
2023/05/25 00:56:04;;;;;;;6.77;5.00;;;;;16.00;97127.00;;;;4934032;29;20262;-71
2023/05/25 00:58:55;;;;;;;7.30;3.33;;;;;16.00;97117.00;;;;4934577;29;20208;-71
2023/05/25 01:01:45;;;;;;;3.50;3.17;;;;;15.80;97110.00;;;;4933734;29;20213;-72
2023/05/25 01:04:38;;;;;;;4.47;3.60;;;;;15.70;97123.00;;;;4934420;29;20223;-70
2023/05/25 01:07:28;;;;;;;5.27;4.33;;;;;15.40;97128.00;;;;4933138;29;20243;-70
2023/05/25 01:10:17;;;;;;;3.63;3.33;;;;;15.70;97124.00;;;;4932502;29;20200;-71
2023/05/25 01:13:07;;;;;;;4.87;4.37;;;;;15.90;97117.00;;;;4933193;29;20209;-71
2023/05/25 01:15:58;;;;;;;4.77;4.00;;;;;16.20;97117.00;;;;4933204;29;20225;-71
2023/05/25 01:18:47;;;;;;;7.30;3.67;;;;;16.30;97116.00;;;;4933288;29;20205;-70
2023/05/25 01:21:41;;;;;;;5.47;4.90;;;;;16.30;97116.00;;;;4933055;29;20208;-71
2023/05/25 01:24:35;;;;;;;6.13;4.03;;;;;16.30;97114.00;;;;4934002;28;20204;-71
2023/05/25 01:27:26;;;;;;;4.93;3.70;;;;;16.40;97112.00;;;;4933827;28;20236;-71
2023/05/25 01:30:17;;;;;;;3.77;3.43;;;;;16.30;97123.00;;;;4932927;29;20241;-71
2023/05/25 01:33:06;;;;;;;7.57;3.43;;;;;16.20;97122.00;;;;4927068;29;20209;-70
2023/05/25 01:35:55;;;;;;;4.43;4.00;;;;;16.00;97125.00;;;;4933507;29;20307;-71
2023/05/25 01:38:46;;;;;;;4.93;4.47;;;;;16.00;97116.00;;;;4932317;29;20212;-71
2023/05/25 01:41:35;;;;;;;6.67;3.80;;;;;16.10;97114.00;;;;4931939;29;20213;-70
2023/05/25 01:44:24;;;;;;;5.87;3.57;;;;;16.10;97116.00;;;;4933848;29;20215;-71
2023/05/25 01:47:17;;;;;;;4.33;3.67;;;;;16.20;97119.00;;;;4932713;29;20889;-71
2023/05/25 01:50:15;;;;;;;5.93;3.90;;;;;16.20;97121.00;;;;4933039;29;20209;-71
2023/05/25 01:53:06;;;;;;;4.83;3.83;;;;;16.20;97112.00;;;;4932609;29;20215;-70
2023/05/25 01:56:02;;;;;;;4.43;4.03;;;;;16.20;97107.00;;;;4933025;29;20236;-71
2023/05/25 01:58:51;;;;;;;7.27;3.93;;;;;16.30;97116.00;;;;4932656;29;20239;-71
2023/05/25 02:01:42;;;;;;;4.33;3.93;;;;;16.30;97122.00;;;;4931820;29;20716;-70
2023/05/25 02:04:31;;;;;;;6.67;4.43;;;;;16.30;97126.00;;;;4931803;29;20273;-70
2023/05/25 02:07:20;;;;;;;11.93;4.97;;;;;16.30;97116.00;;;;4931252;29;20232;-70
2023/05/25 02:10:10;;;;;;;4.30;3.90;;;;;16.30;97116.00;;;;4932009;29;20209;-71
2023/05/25 02:13:00;;;;;;;3.87;3.53;;;;;16.20;97121.00;;;;4932680;29;20585;-71
2023/05/25 02:15:49;;;;;;;4.87;4.03;;;;;16.30;97119.00;;;;4932116;29;20228;-71
2023/05/25 02:18:38;;;;;;;8.23;4.10;;;;;16.30;97110.00;;;;4932095;29;20615;-71
2023/05/25 02:21:27;;;;;;;4.17;3.77;;;;;16.20;97113.00;;;;4929541;29;20216;-71
2023/05/25 02:24:17;;;;;;;12.63;4.30;;;;;16.10;97113.00;;;;4931966;29;20209;-71
2023/05/25 02:27:06;;;;;;;5.13;4.03;;;;;16.20;97116.00;;;;4931266;29;20251;-71
2023/05/25 02:29:57;;;;;;;4.47;3.53;;;;;16.10;97109.00;;;;4928009;29;20209;-71
2023/05/25 02:32:46;;;;;;;4.67;3.47;;;;;15.90;97108.00;;;;4931515;29;20215;-71
2023/05/25 02:35:35;;;;;;;4.90;4.40;;;;;15.90;97113.00;;;;4932363;29;20288;-71
2023/05/25 02:38:24;;;;;;;4.40;3.53;;;;;16.00;97114.00;;;;4932566;29;20235;-71
2023/05/25 02:41:13;;;;;;;4.77;3.50;;;;;15.90;97110.00;;;;4932006;29;20208;-71
2023/05/25 02:44:02;;;;;;;4.50;3.70;;;;;15.70;97114.00;;;;4932124;29;20213;-71
2023/05/25 02:46:52;;;;;;;4.40;3.97;;;;;15.70;97116.00;;;;4929473;29;20239;-71
2023/05/25 02:49:41;;;;;;;5.13;3.30;;;;;15.50;97117.00;;;;4932297;29;20211;-71
2023/05/25 02:52:30;;;;;;;6.50;3.77;;;;;15.40;97120.00;;;;4930033;29;20217;-71
2023/05/25 02:55:19;;;;;;;5.13;4.63;;;;;15.40;97132.00;;;;4931303;29;20590;-71
2023/05/25 02:58:08;;;;;;;3.80;3.50;;;;;15.40;97132.00;;;;4931421;29;20633;-71
2023/05/25 03:00:58;;;;;;;8.53;4.37;;;;;15.50;97141.00;;;;4927679;29;20211;-71
2023/05/25 03:03:51;;;;;;;5.73;4.53;;;;;15.40;97141.00;;;;4931978;29;20319;-72
2023/05/25 03:06:40;;;;;;;7.43;4.67;;;;;15.30;97145.00;;;;4931604;29;20702;-71
2023/05/25 03:09:29;;;;;;;4.37;3.97;;;;;15.30;97145.00;;;;4930682;29;20212;-72
2023/05/25 03:12:18;;;;;;;6.53;3.80;;;;;15.20;97144.00;;;;4931043;29;20216;-71
2023/05/25 03:15:09;;;;;;;3.80;3.40;;;;;14.90;97154.00;;;;4932394;29;20212;-70
2023/05/25 03:18:00;;;;;;;4.33;3.70;;;;;14.70;97155.00;;;;4931641;29;20239;-70
2023/05/25 03:20:50;;;;;;;4.80;3.83;;;;;15.00;97152.00;;;;4931091;29;20283;-70
2023/05/25 03:23:39;;;;;;;5.73;3.53;;;;;15.10;97152.00;;;;4931367;29;20705;-70
2023/05/25 03:26:29;;;;;;;5.30;4.90;;;;;14.90;97159.00;;;;4930872;29;20228;-70
2023/05/25 03:29:18;;;;;;;6.33;4.63;;;;;15.00;97162.00;;;;4931163;29;20209;-70
2023/05/25 03:32:08;;;;;;;4.60;4.20;;;;;15.00;97161.00;;;;4923711;29;20205;-72
2023/05/25 03:34:57;;;;;;;4.90;4.40;;;;;14.90;97159.00;;;;4931039;29;20686;-71
2023/05/25 03:37:47;;;;;;;4.73;4.10;;;;;14.50;97163.00;;;;4930841;29;20247;-72
2023/05/25 03:40:36;;;;;;;5.90;4.33;;;;;14.60;97158.00;;;;4930565;29;20212;-71
2023/05/25 03:43:25;;;;;;;7.60;4.30;;;;;14.70;97164.00;;;;4930581;29;20216;-72
2023/05/25 03:46:14;;;;;;;7.07;4.73;;;;;14.90;97165.00;;;;4930871;29;20248;-72
2023/05/25 03:49:03;;;;;;;5.70;4.50;;;;;14.90;97172.00;;;;4930813;29;20204;-72
2023/05/25 03:51:52;;;;;;;7.40;4.47;;;;;14.80;97162.00;;;;4931071;29;20275;-71
2023/05/25 03:54:42;;;;;;;5.30;4.43;;;;;14.90;97175.00;;;;4929564;29;20689;-72
2023/05/25 03:57:31;;;;;;;5.27;4.53;;;;;14.70;97169.00;;;;4930368;29;20209;-71
2023/05/25 04:00:20;;;;;;;5.30;4.77;;;;;14.70;97171.00;;;;4930210;29;20682;-71
2023/05/25 04:03:09;;;;;;;3.97;3.60;;;;;14.80;97175.00;;;;4930688;29;20212;-71
2023/05/25 04:05:59;;;;;;;6.40;4.17;;;;;14.90;97186.00;;;;4931887;29;20224;-71
2023/05/25 04:08:48;;;;;;;5.37;4.17;;;;;14.90;97181.00;;;;4925102;29;20230;-71
2023/05/25 04:11:38;;;;;;;5.73;4.17;;;;;14.60;97178.00;;;;4928260;29;20217;-72
2023/05/25 04:14:27;;;;;;;6.30;4.73;;;;;14.70;97183.00;;;;4930448;29;20227;-70
2023/05/25 04:17:17;;;;;;;5.03;4.13;;;;;14.60;97180.00;;;;4929643;29;20228;-71
2023/05/25 04:20:08;;;;;;;10.77;4.47;;;;;14.50;97185.00;;;;4931097;29;20227;-71
2023/05/25 04:22:57;;;;;;;8.10;4.83;;;;;14.60;97184.00;;;;4934690;29;20586;-71
2023/05/25 04:25:46;;;;;;;4.43;3.80;;;;;14.90;97193.00;;;;4933838;29;20713;-70
2023/05/25 04:28:39;;;;;;;6.47;5.27;;;;;14.90;97196.00;;;;4933369;29;20574;-70
2023/05/25 04:31:28;;;;;;;7.30;5.37;;;;;14.70;97185.00;;;;4933162;29;20243;-72
2023/05/25 04:34:20;;;;;;;6.07;5.50;;;;;14.80;97192.00;;;;4934588;29;20215;-72
2023/05/25 04:37:09;;;;;;;6.60;4.97;;;;;14.90;97183.00;;;;4934072;29;20240;-70
2023/05/25 04:39:58;;;;;;;12.23;5.30;;;;;15.00;97192.00;;;;4940271;29;20690;-71
2023/05/25 04:42:47;;;;;;;5.90;4.40;;;;;15.00;97192.00;;;;4930187;29;20212;-71
2023/05/25 04:45:38;;;;;;;5.90;5.30;;;;;15.00;97189.00;;;;4933219;29;20232;-71
2023/05/25 04:48:28;;;;;;;6.20;4.83;;;;;15.20;97196.00;;;;4933748;29;20208;-71
2023/05/25 04:51:17;;;;;;;8.03;4.80;;;;;15.30;97193.00;;;;4929895;29;20834;-71
2023/05/25 04:54:06;;;;;;;6.93;5.00;;;;;15.50;97197.00;;;;4934342;29;20215;-71
2023/05/25 04:56:56;;;;;;;8.27;5.10;;;;;15.50;97197.00;;;;4932807;29;20236;-72
2023/05/25 04:59:45;;;;;;;5.00;4.53;;;;;15.50;97203.00;;;;4933130;29;20849;-72
2023/05/25 05:02:36;;;;;;;6.27;5.07;;;;;15.70;97205.00;;;;4932959;29;20708;-73
2023/05/25 05:05:24;;;;;;;4.63;4.23;;;;;15.80;97199.00;;;;4933622;29;20216;-72
2023/05/25 05:08:13;;;;;;;5.33;4.83;;;;;15.90;97197.00;;;;4939751;29;20201;-72
2023/05/25 05:11:02;;;;;;;7.20;4.90;;;;;16.00;97203.00;;;;4937804;29;20215;-72
2023/05/25 05:13:52;;;;;;;4.83;3.83;;;;;16.00;97207.00;;;;4941619;29;20219;-72
2023/05/25 05:16:41;;;;;;;7.60;5.07;;;;;15.80;97199.00;;;;4939271;29;20228;-72
2023/05/25 05:19:31;;;;;;;5.90;5.07;;;;;16.10;97197.00;;;;4938808;29;20221;-72
2023/05/25 05:22:21;;;;;;;6.97;5.77;;;;;16.30;97212.00;;;;4938264;29;20213;-72
2023/05/25 05:25:10;;;;;;;6.30;5.70;;;;;16.70;97211.00;;;;4936924;28;20212;-72
2023/05/25 05:27:59;;;;;;;6.90;5.13;;;;;16.50;97202.00;;;;4935342;29;20796;-72
2023/05/25 05:30:48;;;;;;;9.83;5.53;;;;;16.50;97209.00;;;;4934096;29;20197;-71
2023/05/25 05:33:38;;;;;;;8.13;5.33;;;;;16.70;97209.00;;;;4931966;29;20674;-71
2023/05/25 05:36:29;;;;;;;6.40;5.13;;;;;16.80;97210.00;;;;4932209;29;20229;-71
2023/05/25 05:39:18;;;;;;;7.83;5.60;;;;;16.90;97206.00;;;;4932227;29;20880;-72
2023/05/25 05:42:08;;;;;;;6.07;5.23;;;;;16.80;97204.00;;;;4930288;29;20213;-72
2023/05/25 05:44:57;;;;;;;8.20;5.17;;;;;17.00;97207.00;;;;4929722;29;20216;-72
2023/05/25 05:47:46;;;;;;;9.93;5.83;;;;;17.10;97209.00;;;;4930312;29;20205;-72
2023/05/25 05:50:35;;;;;;;9.63;4.90;;;;;17.30;97212.00;;;;4931483;29;20200;-73
2023/05/25 05:53:25;;;;;;;9.23;5.43;;;;;17.70;97219.00;;;;4929207;29;20217;-72
2023/05/25 05:56:18;;;;;;;8.67;6.03;;;;;18.10;97216.00;;;;4933630;28;20224;-72
2023/05/25 05:59:07;;;;;;;8.47;7.00;;;;;18.30;97214.00;;;;4927751;29;20598;-72
2023/05/25 06:01:56;;;;;;;7.57;5.43;;;;;18.10;97220.00;;;;4931012;29;20211;-72
2023/05/25 06:04:45;;;;;;;6.20;5.60;;;;;18.50;97219.00;;;;4931183;29;20217;-72
2023/05/25 06:07:37;;;;;;;7.87;5.13;;;;;18.80;97221.00;;;;4929831;29;20219;-72
2023/05/25 06:10:27;;;;;;;6.53;5.83;;;;;18.50;97218.00;;;;4930825;29;20697;-72
2023/05/25 06:13:17;;;;;;;6.43;5.17;;;;;18.20;97216.00;;;;4931447;29;20201;-72
2023/05/25 06:16:06;;;;;;;6.83;5.33;;;;;18.20;97211.00;;;;4930800;29;20246;-72
2023/05/25 06:18:55;;;;;;;7.53;4.90;;;;;18.30;97220.00;;;;4931078;29;20232;-72
2023/05/25 06:21:44;;;;;;;6.03;5.20;;;;;18.20;97212.00;;;;4930684;29;20682;-72
2023/05/25 06:24:33;;;;;;;5.33;4.83;;;;;18.10;97209.00;;;;4931433;29;20219;-72
2023/05/25 06:27:24;;;;;;;8.57;4.97;;;;;18.70;97219.00;;;;4928385;29;20227;-72
2023/05/25 06:30:13;;;;;;;6.77;4.53;;;;;19.00;97213.00;;;;4929902;29;20200;-72
2023/05/25 06:33:02;;;;;;;6.77;4.97;;;;;18.50;97222.00;;;;4931395;29;20221;-72
2023/05/25 06:35:51;;;;;;;7.93;5.63;;;;;18.50;97224.00;;;;4930700;29;20233;-72
2023/05/25 06:38:40;;;;;;;9.27;5.07;;;;;19.00;97214.00;;;;4930772;29;20209;-72
2023/05/25 06:41:29;;;;;;;7.87;5.67;;;;;19.20;97211.00;;;;4928661;29;20209;-72
2023/05/25 06:44:20;;;;;;;5.53;5.03;;;;;19.50;97208.00;;;;4927676;29;20212;-71
2023/05/25 06:47:09;;;;;;;10.77;4.80;;;;;19.80;97217.00;;;;4930868;29;20236;-73
2023/05/25 06:49:58;;;;;;;9.13;5.60;;;;;20.00;97219.00;;;;4931025;29;20209;-72
2023/05/25 06:52:47;;;;;;;8.10;5.03;;;;;20.10;97222.00;;;;4931054;29;20205;-73
2023/05/25 06:55:36;;;;;;;6.77;4.73;;;;;20.00;97216.00;;;;4931364;29;20221;-73
2023/05/25 06:58:26;;;;;;;6.57;5.10;;;;;20.20;97219.00;;;;4929214;29;20621;-72
2023/05/25 07:01:16;;;;;;;5.40;4.17;;;;;20.50;97229.00;;;;4930305;29;20663;-73
2023/05/25 07:04:05;;;;;;;5.13;4.73;;;;;20.50;97215.00;;;;4927946;29;20205;-72
2023/05/25 07:06:54;;;;;;;6.37;4.17;;;;;20.80;97228.00;;;;4931930;29;20240;-72
2023/05/25 07:09:43;;;;;;;7.70;4.80;;;;;20.50;97225.00;;;;4929240;29;20216;-72
2023/05/25 07:12:32;;;;;;;4.43;4.00;;;;;20.60;97225.00;;;;4930788;29;20204;-72
2023/05/25 07:15:22;;;;;;;5.33;4.03;;;;;21.10;97222.00;;;;4929183;29;20239;-72
2023/05/25 07:18:13;;;;;;;5.00;4.00;;;;;21.30;97226.00;;;;4924915;29;20623;-72
2023/05/25 07:21:02;;;;;;;5.80;4.17;;;;;21.60;97216.00;;;;4930162;29;20235;-72
2023/05/25 07:23:51;;;;;;;11.23;4.17;;;;;21.60;97212.00;;;;4931708;29;20219;-72
2023/05/25 07:26:43;;;;;;;7.63;4.50;;;;;21.70;97224.00;;;;4930586;29;20228;-72
2023/05/25 07:29:32;;;;;;;3.90;3.17;;;;;21.70;97220.00;;;;4926404;29;20208;-72
2023/05/25 07:32:21;;;;;;;5.13;3.67;;;;;21.10;97221.00;;;;4930147;29;21008;-72
2023/05/25 07:35:11;;;;;;;4.17;3.63;;;;;21.60;97218.00;;;;4926666;29;20205;-72
2023/05/25 07:38:03;;;;;;;4.07;3.67;;;;;21.90;97222.00;;;;4928004;29;20200;-72
2023/05/25 07:40:52;;;;;;;4.37;3.97;;;;;21.70;97220.00;;;;4925915;29;20221;-72
2023/05/25 07:43:41;;;;;;;7.20;3.83;;;;;22.00;97219.00;;;;4929489;29;20220;-72
2023/05/25 07:46:30;;;;;;;3.97;3.57;;;;;22.40;97213.00;;;;4927181;29;20229;-72
2023/05/25 07:49:19;;;;;;;4.77;3.80;;;;;22.60;97225.00;;;;4930228;29;20242;-73
2023/05/25 07:52:09;;;;;;;5.63;4.10;;;;;22.80;97227.00;;;;4930676;29;20224;-73
2023/05/25 07:54:58;;;;;;;4.43;3.50;;;;;23.00;97222.00;;;;4933937;29;20208;-72
2023/05/25 07:57:47;;;;;;;7.63;6.33;;;;;23.20;97227.00;;;;4934954;29;20259;-72
2023/05/25 08:00:36;;;;;;;6.23;4.00;;;;;23.20;97228.00;;;;4933632;29;20246;-72
2023/05/25 08:03:25;;;;;;;4.57;4.10;;;;;23.40;97237.00;;;;4934154;29;20217;-72
2023/05/25 08:06:20;;;;;;;3.60;3.30;;;;;23.40;97237.00;;;;4933110;29;20236;-72
2023/05/25 08:09:12;;;;;;;10.27;4.07;;;;;23.60;97225.00;;;;4930579;29;20267;-72
2023/05/25 08:12:01;;;;;;;4.93;3.50;;;;;23.50;97226.00;;;;4929857;29;20200;-72
2023/05/25 08:15:01;;;;;;;4.60;3.63;;;;;23.80;97226.00;;;;4929392;29;20633;-72
2023/05/25 08:17:50;;;;;;;4.63;4.20;;;;;23.50;97228.00;;;;4932738;29;20220;-72
2023/05/25 08:20:39;;;;;;;7.07;5.17;;;;;23.60;97223.00;;;;4931238;29;20723;-74
2023/05/25 08:23:29;;;;;;;5.53;4.77;;;;;23.50;97239.00;;;;4932567;29;20255;-73
2023/05/25 08:26:19;;;;;;;5.87;4.40;;;;;23.60;97227.00;;;;4932225;29;20617;-72
2023/05/25 08:29:16;;;;;;;6.30;4.60;;;;;23.70;97246.00;;;;4928585;29;20211;-73
2023/05/25 08:32:06;;;;;;;5.63;3.90;;;;;24.10;97245.00;;;;4932342;29;20201;-73
2023/05/25 08:34:55;;;;;;;7.80;3.90;;;;;24.20;97234.00;;;;4932730;29;20243;-73
2023/05/25 08:37:45;;;;;;;7.33;5.23;;;;;23.90;97222.00;;;;4933611;29;20204;-73
2023/05/25 08:40:34;;;;;;;7.67;3.90;;;;;24.10;97233.00;;;;4933655;29;20760;-73
2023/05/25 08:43:24;;;;;;;5.03;4.50;;;;;23.90;97231.00;;;;4931469;29;20212;-73
2023/05/25 08:46:14;;;;;;;7.03;4.23;;;;;24.00;97223.00;;;;4934649;29;20232;-73
2023/05/25 08:49:08;;;;;;;7.33;3.83;;;;;23.90;97228.00;;;;4929108;29;20229;-72
2023/05/25 08:51:57;;;;;;;7.43;4.00;;;;;24.70;97239.00;;;;4927659;29;20248;-72
2023/05/25 08:54:49;;;;;;;6.03;4.03;;;;;24.90;97236.00;;;;4933783;29;20213;-71
2023/05/25 08:57:44;;;;;;;4.50;3.87;;;;;24.40;97236.00;;;;4933133;29;22485;-72
2023/05/25 09:00:36;;;;;;;4.67;3.97;;;;;25.50;97248.00;;;;4932345;29;20224;-72
2023/05/25 09:03:25;;;;;;;5.37;4.47;;;;;25.60;97238.00;;;;4934371;29;20712;-73
2023/05/25 09:06:15;;;;;;;5.13;4.50;;;;;25.50;97240.00;;;;4929935;29;20225;-72
2023/05/25 09:09:05;;;;;;;5.33;3.73;;;;;25.30;97226.00;;;;4934032;29;20216;-72
2023/05/25 09:11:54;;;;;;;7.23;4.00;;;;;24.70;97242.00;;;;4933003;29;20209;-73
2023/05/25 09:14:46;;;;;;;4.70;4.30;;;;;23.70;97229.00;;;;4933249;29;20582;-73
2023/05/25 09:17:37;;;;;;;6.33;4.30;;;;;25.80;97226.00;;;;4931689;29;20212;-73
2023/05/25 09:20:30;;;;;;;8.23;4.43;;;;;25.00;97242.00;;;;4933144;29;20232;-72
2023/05/25 09:23:19;;;;;;;7.17;5.20;;;;;25.40;97244.00;;;;4933194;29;20209;-73
2023/05/25 09:26:09;;;;;;;4.97;4.50;;;;;24.60;97231.00;;;;4933752;29;20232;-73
2023/05/25 09:28:58;;;;;;;7.93;4.50;;;;;25.90;97222.00;;;;4932330;29;20204;-73
2023/05/25 09:31:47;;;;;;;6.00;4.70;;;;;25.20;97222.00;;;;4931928;29;20213;-72
2023/05/25 09:34:37;;;;;;;6.20;4.73;;;;;25.40;97230.00;;;;4932277;29;20215;-73
2023/05/25 09:37:26;;;;;;;5.63;4.30;;;;;26.50;97242.00;;;;4932343;29;20235;-73
2023/05/25 09:40:16;;;;;;;4.37;3.97;;;;;25.40;97233.00;;;;4933171;29;20610;-72
2023/05/25 09:43:05;;;;;;;4.90;4.40;;;;;24.10;97230.00;;;;4932920;29;20224;-73
2023/05/25 09:45:54;;;;;;;6.23;4.90;;;;;26.10;97234.00;;;;4931261;29;20228;-72
2023/05/25 09:48:44;;;;;;;4.90;4.30;;;;;26.10;97233.00;;;;4930032;29;20272;-73
2023/05/25 09:51:35;;;;;;;5.17;4.67;;;;;27.20;97228.00;;;;4919588;29;20208;-74
2023/05/25 09:54:24;;;;;;;4.97;4.53;;;;;27.50;97262.00;;;;4923676;29;20216;-73
2023/05/25 09:57:14;;;;;;;6.13;5.05;;;;;27.20;97240.00;;;;4924827;29;20397;-73
2023/05/25 10:00:04;;;;;;;4.67;4.27;;;;;27.50;97242.00;;;;4927467;29;20217;-73
2023/05/25 10:02:54;;;;;;;7.00;4.80;;;;;26.30;97239.00;;;;4932078;29;20217;-73
2023/05/25 10:05:43;;;;;;;4.53;4.10;;;;;27.30;97239.00;;;;4932060;29;20248;-73
2023/05/25 10:08:34;;;;;;;4.53;4.10;;;;;25.80;97233.00;;;;4931816;29;20225;-74
2023/05/25 10:11:26;;;;;;;4.07;3.63;;;;;26.90;97271.00;;;;4923359;29;20213;-73
2023/05/25 10:14:17;;;;;;;5.93;5.18;;;;;26.80;97267.00;;;;4930902;29;20399;-74
2023/05/25 10:17:07;;;;;;;4.93;4.43;;;;;26.00;97262.00;;;;4932448;29;20230;-73
2023/05/25 10:19:59;;;;;;;9.73;5.27;;;;;26.40;97235.00;;;;4926116;29;20213;-74
2023/05/25 10:22:54;;;;;;;5.70;4.50;;;;;26.90;97228.00;;;;4931748;29;20229;-73
2023/05/25 10:25:47;;;;;;;4.37;3.97;;;;;28.00;97240.00;;;;4931912;29;20228;-73
2023/05/25 10:28:37;;;;;;;5.70;4.60;;;;;28.10;97233.00;;;;4932358;28;20214;-74
2023/05/25 10:31:28;;;;;;;5.80;4.63;;;;;26.30;97224.00;;;;4928984;29;20702;-73
2023/05/25 10:34:17;;;;;;;5.10;4.40;;;;;25.90;97220.00;;;;4931334;29;20958;-73
2023/05/25 10:37:07;;;;;;;7.40;4.30;;;;;26.30;97218.00;;;;4931191;29;20225;-73
2023/05/25 10:39:57;;;;;;;5.73;5.10;;;;;27.40;97216.00;;;;4930991;29;20690;-73
2023/05/25 10:42:48;;;;;;;7.27;4.40;;;;;28.70;97222.00;;;;4931930;28;20721;-73
2023/05/25 10:45:37;;;;;;;5.73;3.83;;;;;29.40;97221.00;;;;4931760;29;20236;-73
2023/05/25 10:48:36;;;;;;;4.60;4.20;;;;;28.80;97224.00;;;;4928765;29;20290;-73
2023/05/25 10:51:37;;;;;;;5.83;4.80;;;;;29.50;97216.00;;;;4931093;29;20594;-72
2023/05/25 10:54:30;;;;;;;5.43;4.87;;;;;29.30;97217.00;;;;4930284;29;20215;-72
2023/05/25 10:57:21;;;;;;;5.63;4.17;;;;;30.00;97211.00;;;;4927805;29;20224;-74
2023/05/25 11:00:14;;;;;;;5.40;4.57;;;;;30.10;97212.00;;;;4932505;29;20230;-72
2023/05/25 11:03:03;;;;;;;5.80;4.23;;;;;29.40;97216.00;;;;4926288;29;20233;-73
2023/05/25 11:05:53;;;;;;;7.17;4.30;;;;;29.70;97219.00;;;;4932083;28;20233;-74
2023/05/25 11:08:52;;;;;;;4.43;3.80;;;;;30.80;97207.00;;;;4935241;29;20210;-74
2023/05/25 11:12:03;;;;;;;4.70;4.30;;;;;31.20;97203.00;;;;4925474;29;20213;-74
2023/05/25 11:15:15;;;;;;;11.40;3.80;;;;;30.10;97205.00;;;;4930949;29;20216;-73
2023/05/25 11:18:05;;;;;;;4.70;4.17;;;;;30.90;97211.00;;;;4925128;29;20203;-72
2023/05/25 11:21:12;;;;;;;7.50;4.67;;;;;31.20;97204.00;;;;4929488;29;20689;-73
2023/05/25 11:24:03;;;;;;;5.20;4.20;;;;;31.30;97255.00;;;;4923148;29;20220;-73
2023/05/25 11:26:57;;;;;;;6.97;4.60;;;;;29.70;97200.00;;;;4922057;29;20286;-74
2023/05/25 11:29:50;;;;;;;4.93;4.40;;;;;30.60;97193.00;;;;4930600;29;20209;-74
2023/05/25 11:32:49;;;;;;;4.67;4.07;;;;;31.60;97193.00;;;;4927909;29;20235;-74
2023/05/25 11:35:38;;;;;;;4.43;4.03;;;;;32.10;97194.00;;;;4929968;29;20277;-74
2023/05/25 11:38:27;;;;;;;6.83;4.07;;;;;32.30;97188.00;;;;4927577;29;20222;-74
2023/05/25 11:41:17;;;;;;;6.35;3.55;;;;;30.60;97186.00;;;;4930275;29;20231;-75
2023/05/25 11:44:07;;;;;;;4.70;4.30;;;;;28.30;97190.00;;;;4930464;29;20208;-74
2023/05/25 11:47:00;;;;;;;5.57;4.40;;;;;27.90;97180.00;;;;4929719;29;20307;-72
2023/05/25 11:49:50;;;;;;;4.43;3.93;;;;;27.60;97233.00;;;;4923372;29;20219;-75
2023/05/25 11:52:39;;;;;;;6.40;4.13;;;;;29.80;97166.00;;;;4924239;29;20640;-75
2023/05/25 11:55:28;;;;;;;4.60;4.20;;;;;31.40;97165.00;;;;4925567;29;20230;-74
2023/05/25 11:58:18;;;;;;;4.93;3.90;;;;;31.10;97165.00;;;;4926766;29;20729;-72
2023/05/25 12:01:17;;;;;;;4.60;4.20;;;;;30.90;97157.00;;;;4928134;29;20212;-75
2023/05/25 12:04:09;;;;;;;4.57;3.87;;;;;32.50;97152.00;;;;4930303;29;20685;-74
2023/05/25 12:07:07;;;;;;;4.20;3.83;;;;;31.10;97154.00;;;;4927602;29;20220;-75
2023/05/25 12:10:06;;;;;;;4.20;3.80;;;;;31.10;97153.00;;;;4928351;29;20648;-76
2023/05/25 12:12:57;;;;;;;4.60;3.80;;;;;32.10;97151.00;;;;4923358;29;20226;-75
2023/05/25 12:15:46;;;;;;;5.33;4.07;;;;;33.60;97137.00;;;;4929900;29;20241;-76
2023/05/25 12:18:35;;;;;;;5.55;4.05;;;;;32.40;97146.00;;;;4930107;29;20646;-75
2023/05/25 12:21:24;;;;;;;5.32;4.43;;;;;33.20;97144.00;;;;4930662;29;20720;-75
2023/05/25 12:24:14;;;;;;;4.88;3.95;;;;;32.20;97196.00;;;;4930833;29;20222;-76
2023/05/25 12:27:05;;;;;;;4.38;3.97;;;;;33.10;97143.00;;;;4930479;29;20246;-76
2023/05/25 12:29:54;;;;;;;5.22;3.58;;;;;33.70;97134.00;;;;4930748;29;20229;-75
2023/05/25 12:32:54;;;;;;;4.05;3.67;;;;;33.80;97142.00;;;;4929809;29;20233;-76
2023/05/25 12:35:47;;;;;;;4.40;3.92;;;;;33.50;97135.00;;;;4929566;29;20720;-76
2023/05/25 12:38:36;;;;;;;3.78;3.38;;;;;34.80;97130.00;;;;4930988;29;20214;-76
2023/05/25 12:41:27;;;;;;;4.15;3.85;;;;;34.80;97122.00;;;;4931262;29;20220;-75
2023/05/25 12:44:24;;;;;;;4.05;3.65;;;;;35.00;97127.00;;;;4934752;29;20211;-76
2023/05/25 12:47:15;;;;;;;4.75;4.00;;;;;35.10;97129.00;;;;4934105;29;20260;-76
2023/05/25 12:50:12;;;;;;;6.00;3.90;;;;;35.80;97133.00;;;;4931883;29;20649;-77
2023/05/25 12:53:02;;;;;;;3.90;3.60;;;;;35.80;97145.00;;;;4933120;29;20244;-76
2023/05/25 12:55:51;;;;;;;4.95;3.63;;;;;36.20;97129.00;;;;4931410;29;20222;-75
2023/05/25 12:58:42;;;;;;;5.45;3.97;;;;;35.80;97124.00;;;;4932858;29;20208;-76
2023/05/25 13:01:32;;;;;;;8.75;5.38;;;;;35.50;97122.00;;;;4932869;29;20228;-76
2023/05/25 13:04:22;;;;;;;8.30;4.65;;;;;33.80;97116.00;;;;4934000;28;20201;-77
2023/05/25 13:07:11;;;;;;;10.30;4.55;;;;;34.60;97098.00;;;;4933858;29;20232;-76
2023/05/25 13:10:00;;;;;;;4.32;3.85;;;;;34.70;97108.00;;;;4933832;29;20263;-76
2023/05/25 13:12:50;;;;;;;12.00;6.95;;;;;35.70;97097.00;;;;4932610;29;20602;-76
2023/05/25 13:15:40;;;;;;;14.85;7.28;;;;;36.00;97097.00;;;;4933359;29;20232;-76
2023/05/25 13:18:30;;;;;;;8.88;5.85;;;;;35.70;97103.00;;;;4932382;29;20200;-77
2023/05/25 13:21:19;;;;;;;4.50;4.03;;;;;35.00;97096.00;;;;4932999;29;20237;-77
2023/05/25 13:24:08;;;;;;;5.40;3.93;;;;;33.90;97099.00;;;;4935099;29;20200;-78
2023/05/25 13:26:57;;;;;;;5.50;3.72;;;;;34.00;97092.00;;;;4933742;29;20233;-77
2023/05/25 13:29:46;;;;;;;4.15;3.40;;;;;35.60;97094.00;;;;4933058;29;20708;-76
2023/05/25 13:32:36;;;;;;;4.38;3.55;;;;;35.20;97085.00;;;;4932255;29;20280;-76
2023/05/25 13:35:36;;;;;;;3.88;3.40;;;;;35.00;97088.00;;;;4933423;28;20200;-75
2023/05/25 13:38:26;;;;;;;3.72;3.42;;;;;35.60;97076.00;;;;4930329;29;20209;-76
2023/05/25 13:41:16;;;;;;;3.65;3.35;;;;;35.70;97083.00;;;;4933367;29;20213;-77
2023/05/25 13:44:06;;;;;;;3.85;3.17;;;;;35.00;97081.00;;;;4932363;29;20212;-78
2023/05/25 13:46:55;;;;;;;3.83;3.47;;;;;35.60;97070.00;;;;4930520;29;21106;-77
2023/05/25 13:49:46;;;;;;;6.75;3.55;;;;;33.80;97078.00;;;;4933136;29;20215;-76
2023/05/25 13:52:35;;;;;;;3.88;3.38;;;;;34.60;97078.00;;;;4935449;29;20220;-75
2023/05/25 13:55:24;;;;;;;5.22;3.55;;;;;35.30;97076.00;;;;4931506;29;20681;-76
2023/05/25 13:58:13;;;;;;;3.40;3.10;;;;;35.40;97073.00;;;;4933386;29;20200;-77
2023/05/25 14:01:03;;;;;;;4.00;3.55;;;;;35.80;97077.00;;;;4933245;29;20212;-77
2023/05/25 14:03:52;;;;;;;3.95;3.33;;;;;35.50;97073.00;;;;4933569;29;20204;-78
2023/05/25 14:06:42;;;;;;;3.67;3.25;;;;;35.40;97070.00;;;;4935596;29;20235;-77
2023/05/25 14:09:31;;;;;;;3.67;3.33;;;;;35.60;97064.00;;;;4933506;29;20216;-77
2023/05/25 14:12:20;;;;;;;6.60;4.13;;;;;35.80;97072.00;;;;4932493;29;20208;-77
2023/05/25 14:15:10;;;;;;;6.25;3.78;;;;;35.30;97069.00;;;;4934703;29;20220;-78